Slagle, Louisiana
Current Conditions -  °F | °C
As of 2:58 AM on Wednesday 26 Nov 2014 (Local Time) from KPOE Reporting Station
Clear Clear  
Wind Chill: 42°   Ceiling: Unl
Heat Index: 42°   Visibility: 10mi
Dew Point: 35°   Wind: 3mph
Humidity: 76%   Direction: 220°SW
Pressure: 30.18"   Gusts: NA
Location:  31.2°N, 93.13°W
Report Text: KPOE 260858Z AUTO 22003KT 10SM CLR 05/01 A3018 RMK AO2 SLP223 T00540014 55006
Loading
Personal Weather Stations






























Interactive Weather Map New forecast layout! Learn more

10-Day Weather Forecast

Advertisements
Track Severe Weather on mobile